Airfield :
LOGIN :

Register | Disclaimer

   EN    FR    IT 

 










Legend :    VFR   Marginal VFR   IFR   Intensive IFR   Very Intensive IFR
Visi :
Ceiling :
>= 8 km
>= 3000ft
5 to 8 km
1000 to 3000 ft
1500m to 5 km
500 to 1000 ft
800 to 1500m
200 to 500 ft
< 800m
< 200 ft
Symbols :   Thunderstorms  Fog  Heavy snow  Heavy precipitations  Wind > 20 kt
SIGMETs :     Misc.  Thunderstorms  Icing  Turbulence  Mountain Waves  Volcanic Ashes







- Airport Elevation : 218 ft
- IATA code : LBG
- Download approach charts


LFPB - Paris / Le Bourget

CURRENT METAR :
  • 232330Z AUTO 11004KT CAVOK 15/10 Q0995 NOSIG

EXPIRED METARs :
  • 232300Z AUTO 12005KT CAVOK 16/11 Q0995 NOSIG
  • 232230Z AUTO 13004KT CAVOK 16/11 Q0995 NOSIG
  • 232200Z AUTO 15004KT CAVOK 16/11 Q0996 TEMPO VRB15G25KT 4000 -TSRA FEW060CB
  • 232130Z AUTO 16006KT CAVOK 16/11 Q0996 TEMPO VRB15G25KT 4000 -TSRA FEW060CB
  • 232100Z AUTO 16006KT CAVOK 17/11 Q0996 TEMPO VRB15G25KT 4000 -TSRA FEW060CB

TAF TAF LFPB
Valid from the 23 at 18:00 until the 24 at 18:00 UTC


231700Z 2318/2418 17004KT CAVOK
PROB30
TEMPO 2320/2323 VRB15G25KT 4000 -TSRA FEW060CB
BECMG 2401/2403 15010KT
BECMG 2407/2409 19015G25KT BKN030
TEMPO 2409/2412 -RA BKN030
TEMPO 2409/2416 19015G35KT
PROB40
TEMPO 2413/2417 4000 SHRA FEW040CB
ATIS : +33 1 48 62 43 92
No reported NOTAMs for that airfield.
2 SIGMETs reported for the Paris FIR (LFFF) :
 
SIGMET 2  cancelation
LFFF SIGMET 3 VALID 232300/240100 LFPW
LFFF PARIS FIR/UIR CNL SIGMET 2 232300/240100=
SIGMET 2  CANCELED :
Embedded thunderstorms
LFFF SIGMET 2 VALID 232300/240100 LFPW
LFFF PARIS FIR/UIR EMBD TS OBS AT 2300Z WI N4715 E00030 - N4715 W00015 - N4730 W00015 - N4730 E00030 - N4715 E00030 TOP FL360 MOV N 15KT WHN=



MET'MAP, your aeronautical weather chart ! - Copyright ORBIFLY December 2007 - Disclaimer

ORBIFLY MET'MAP TEAM :

Programming & Development : Alexandra Zaïnal
Concept & Development : Baudouin d'Aumeries
Co-Development & Prog : Marc-Olivier Méhu
Technical & hardware support : Manuel Goepfert

Contact : metmap@orbifly.com




SOURCES & CREDITS :

   NOAA